Time;durP1;ratioP1;P1;durP2;ratioP2;P2;SDS_P1;SDS_P2;PMS_P1;PMS_P2;Temp;Humidity;BMP_temperature;BMP_pressure;BME280_temperature;BME280_humidity;BME280_pressure;Samples;Min_cycle;Max_cycle;Signal;HPM_P1;HPM_P2
2022/09/21 12:56:15;;;;;;;4.13;1.55;;;16.20;78.50;;;;;;5074597;28;20047;-67
2022/09/21 12:59:14;;;;;;;1.92;1.15;;;16.20;78.40;;;;;;5073227;28;20045;-66
2022/09/21 13:02:16;;;;;;;1.80;0.95;;;16.20;78.40;;;;;;5074242;28;20615;-65
2022/09/21 13:05:14;;;;;;;1.98;1.02;;;16.30;78.30;;;;;;5074273;28;20021;-65
2022/09/21 13:08:22;;;;;;;3.17;1.15;;;16.20;78.40;;;;;;5073394;28;20083;-65
2022/09/21 13:11:06;;;;;;;1.90;0.90;;;16.20;78.40;;;;;;5059055;28;20396;-66
2022/09/21 18:04:46;;;;;;;2.75;1.40;;;15.70;77.80;;;;;;4965427;28;20062;-66
2022/09/21 18:07:12;;;;;;;2.78;1.30;;;15.70;77.80;;;;;;4961547;28;20041;-66
2022/09/21 18:09:38;;;;;;;2.83;1.30;;;15.70;77.80;;;;;;4954875;29;20023;-66
2022/09/21 18:12:34;;;;;;;1.92;1.15;;;15.70;77.80;;;;;;4960667;28;20513;-66
2022/09/21 18:15:14;;;;;;;1.13;1.00;;;15.70;77.80;;;;;;4948405;28;20027;-66
2022/09/21 18:18:16;;;;;;;2.45;1.30;;;15.70;77.80;;;;;;4964326;28;20026;-66
2022/09/21 18:20:51;;;;;;;2.63;1.08;;;15.70;77.80;;;;;;4957780;28;20079;-66
2022/09/21 18:23:18;;;;;;;2.22;1.33;;;15.70;77.80;;;;;;4965031;28;20027;-67
2022/09/21 18:25:48;;;;;;;2.58;1.45;;;15.60;77.70;;;;;;4961019;28;20114;-66
2022/09/21 18:28:39;;;;;;;1.90;1.15;;;15.70;77.80;;;;;;4963134;28;20024;-67
2022/09/21 18:31:27;;;;;;;3.80;1.33;;;15.70;77.80;;;;;;4962628;28;20093;-66
2022/09/21 18:34:14;;;;;;;5.45;1.30;;;15.60;77.70;;;;;;4966183;28;20042;-66
2022/09/21 18:47:34;;;;;;;1.98;1.42;;;15.60;77.70;;;;;;4975963;28;20034;-66
2022/09/21 18:50:06;;;;;;;2.83;1.73;;;15.60;77.70;;;;;;4954134;28;20053;-67
2022/09/21 18:52:35;;;;;;;2.75;1.70;;;15.60;77.70;;;;;;4960619;28;20058;-66
2022/09/21 18:55:10;;;;;;;2.90;1.50;;;15.60;77.70;;;;;;4961588;28;20547;-66
2022/09/21 18:57:36;;;;;;;3.50;1.88;;;15.60;77.70;;;;;;4960912;28;20106;-66
2022/09/21 19:00:02;;;;;;;1.98;1.38;;;15.50;77.70;;;;;;4961848;28;20110;-66
2022/09/21 19:02:28;;;;;;;1.50;1.40;;;15.50;77.60;;;;;;4963712;28;20480;-66
2022/09/21 19:04:57;;;;;;;2.35;1.60;;;15.50;77.60;;;;;;4964792;28;20037;-66
2022/09/21 19:07:38;;;;;;;1.95;1.35;;;15.50;77.70;;;;;;4960660;28;20029;-66
2022/09/21 19:10:06;;;;;;;2.35;1.27;;;15.50;77.70;;;;;;4969730;28;20301;-66
2022/09/21 19:12:50;;;;;;;4.00;1.40;;;15.60;77.80;;;;;;4956158;28;20023;-66
2022/09/21 19:15:37;;;;;;;6.15;1.75;;;15.50;77.70;;;;;;4962424;28;20027;-66
2022/09/21 19:18:58;;;;;;;1.75;1.27;;;15.50;77.70;;;;;;4964905;28;20042;-66
2022/09/21 19:21:39;;;;;;;7.95;1.60;;;15.50;77.70;;;;;;4901719;29;20491;-66
2022/09/21 19:24:12;;;;;;;2.22;1.40;;;15.50;77.70;;;;;;4900094;29;20044;-66
2022/09/21 19:27:05;;;;;;;2.30;1.45;;;15.50;77.80;;;;;;4907295;29;20036;-66
2022/09/21 19:29:50;;;;;;;5.85;1.95;;;15.50;77.70;;;;;;4897704;29;20024;-66
2022/09/21 19:32:33;;;;;;;1.88;1.20;;;15.50;77.70;;;;;;4898173;29;20053;-67
2022/09/21 19:35:12;;;;;;;1.88;1.55;;;15.50;77.70;;;;;;4885505;29;20029;-66
2022/09/21 19:37:38;;;;;;;2.65;1.52;;;15.40;78.40;;;;;;4893663;29;20655;-66
2022/09/21 19:40:04;;;;;;;2.17;1.40;;;15.40;77.70;;;;;;4901333;29;20041;-66
2022/09/21 19:42:49;;;;;;;12.68;1.90;;;15.40;77.70;;;;;;4893253;29;20021;-66
2022/09/21 19:45:25;;;;;;;3.63;1.38;;;15.40;77.70;;;;;;4885353;29;20040;-66
2022/09/21 19:47:53;;;;;;;1.95;1.48;;;15.40;77.70;;;;;;4902163;29;20035;-66
2022/09/21 19:50:39;;;;;;;2.17;1.73;;;15.40;77.70;;;;;;4902514;29;20341;-66
2022/09/21 20:01:19;;;;;;;3.42;1.70;;;15.40;77.70;;;;;;4961710;28;20038;-66
2022/09/21 20:03:47;;;;;;;2.15;1.48;;;15.40;77.70;;;;;;4963278;28;20033;-66
2022/09/21 20:06:24;;;;;;;2.22;1.40;;;15.40;77.70;;;;;;4958547;28;20493;-66
2022/09/21 20:09:11;;;;;;;1.83;1.48;;;15.40;77.70;;;;;;4960421;28;20133;-66
2022/09/21 20:12:18;;;;;;;3.17;1.95;;;15.40;77.70;;;;;;4963340;28;20027;-66
2022/09/21 20:14:59;;;;;;;2.03;1.38;;;15.40;77.70;;;;;;4953687;28;20028;-66
2022/09/21 20:17:38;;;;;;;4.22;1.40;;;15.40;77.70;;;;;;4960691;28;20068;-66
2022/09/21 20:20:17;;;;;;;4.28;1.98;;;15.40;77.70;;;;;;4962161;28;20031;-66
2022/09/21 20:22:43;;;;;;;4.88;1.83;;;15.30;77.70;;;;;;4953055;28;20035;-66
2022/09/21 20:25:20;;;;;;;2.15;1.20;;;15.30;77.70;;;;;;4958283;28;20114;-66
2022/09/21 20:27:49;;;;;;;4.50;1.70;;;15.30;77.70;;;;;;4952489;28;20273;-66
2022/09/21 20:30:19;;;;;;;3.28;1.52;;;15.30;77.60;;;;;;4960518;28;20116;-67
2022/09/21 20:32:58;;;;;;;3.08;1.33;;;15.30;77.60;;;;;;4956771;28;20082;-66
2022/09/21 20:35:29;;;;;;;1.63;1.30;;;15.30;77.70;;;;;;4961839;28;20027;-66
2022/09/21 20:51:38;;;;;;;2.63;1.50;;;15.30;77.70;;;;;;4901125;29;20132;-66
2022/09/21 20:54:04;;;;;;;1.80;1.25;;;15.30;77.70;;;;;;4891210;29;20031;-66
2022/09/21 20:56:30;;;;;;;2.55;1.45;;;15.30;77.70;;;;;;4894590;29;20048;-66
2022/09/21 20:58:56;;;;;;;5.15;1.63;;;15.30;77.70;;;;;;4903313;29;20027;-66
2022/09/21 21:01:22;;;;;;;2.72;1.75;;;15.30;77.70;;;;;;4902001;29;20337;-66
2022/09/21 21:03:49;;;;;;;5.15;2.10;;;15.30;77.70;;;;;;4896469;29;20058;-66
2022/09/21 21:06:19;;;;;;;3.60;1.65;;;15.30;77.70;;;;;;4902578;29;20032;-67
2022/09/21 21:08:45;;;;;;;2.05;1.40;;;15.30;77.80;;;;;;4892699;29;20439;-66
2022/09/21 21:11:13;;;;;;;3.05;1.50;;;15.20;77.70;;;;;;4910989;29;20036;-66
2022/09/21 21:13:38;;;;;;;2.35;1.48;;;15.20;77.70;;;;;;4903812;29;20064;-66
2022/09/21 21:16:05;;;;;;;2.72;1.48;;;15.20;77.70;;;;;;4902641;29;20040;-66
2022/09/21 21:18:30;;;;;;;2.10;1.48;;;15.20;77.70;;;;;;4888571;29;20029;-66
2022/09/21 21:21:03;;;;;;;2.72;1.60;;;15.20;77.70;;;;;;4926657;28;20034;-65
2022/09/21 21:24:38;;;;;;;3.13;1.65;;;15.20;77.70;;;;;;4964977;28;20080;-66
2022/09/21 21:26:17;;;;;;;3.47;1.50;;;15.20;77.70;;;;;;4962070;28;20042;-66
2022/09/21 21:28:42;;;;;;;1.98;1.23;;;15.20;77.80;;;;;;4962231;28;20023;-65
2022/09/21 21:31:09;;;;;;;1.58;1.48;;;15.20;77.70;;;;;;4963576;28;20172;-65
2022/09/21 21:33:34;;;;;;;1.83;1.30;;;15.20;77.70;;;;;;4963970;28;20023;-65
2022/09/21 21:36:05;;;;;;;4.85;1.92;;;15.20;77.70;;;;;;4964656;28;20085;-66
2022/09/21 21:38:31;;;;;;;3.25;1.20;;;15.20;77.70;;;;;;4965024;28;20118;-65
2022/09/21 21:40:56;;;;;;;10.63;1.65;;;15.20;77.80;;;;;;4963260;28;20568;-65
2022/09/21 21:43:22;;;;;;;4.00;1.30;;;15.20;77.70;;;;;;4970896;28;20045;-66
2022/09/21 21:45:52;;;;;;;2.92;1.52;;;15.20;77.70;;;;;;4963133;28;20015;-65
2022/09/21 21:48:18;;;;;;;1.53;1.37;;;15.20;77.60;;;;;;4956643;28;20094;-65
2022/09/21 21:50:44;;;;;;;1.77;1.33;;;15.20;77.70;;;;;;4962754;28;20431;-66
2022/09/21 21:53:10;;;;;;;2.08;1.15;;;15.20;77.70;;;;;;4962936;28;20149;-65
2022/09/21 21:55:35;;;;;;;2.65;1.30;;;15.10;77.70;;;;;;4964391;28;20035;-65
2022/09/21 21:58:01;;;;;;;2.75;1.50;;;15.10;77.70;;;;;;4965301;28;20034;-65
2022/09/21 22:00:26;;;;;;;2.95;1.50;;;15.10;77.70;;;;;;4965515;28;20031;-66
2022/09/21 22:02:55;;;;;;;1.52;1.23;;;15.10;77.70;;;;;;4962551;28;20388;-65
2022/09/21 22:05:21;;;;;;;3.00;1.50;;;15.20;77.70;;;;;;4962294;28;20039;-66
2022/09/21 22:07:47;;;;;;;7.47;1.55;;;15.10;77.70;;;;;;4964744;28;20019;-65
2022/09/21 22:10:12;;;;;;;2.97;1.50;;;15.10;77.70;;;;;;4965763;28;20061;-65
2022/09/21 22:12:38;;;;;;;3.15;1.25;;;15.20;77.70;;;;;;4954639;28;20469;-65
2022/09/21 22:15:04;;;;;;;2.40;1.48;;;15.10;77.70;;;;;;4962506;28;20126;-65
2022/09/21 22:17:30;;;;;;;2.63;1.45;;;15.10;77.70;;;;;;4961733;28;20027;-65
2022/09/21 22:19:56;;;;;;;2.35;1.30;;;15.10;77.70;;;;;;4968000;28;20034;-65
2022/09/21 22:22:21;;;;;;;1.92;1.20;;;15.10;77.60;;;;;;4964516;28;20037;-65
2022/09/21 22:24:47;;;;;;;3.47;1.67;;;15.10;77.70;;;;;;4963567;28;20042;-65
2022/09/21 22:27:13;;;;;;;1.73;1.42;;;15.10;77.80;;;;;;4964926;28;20030;-65
2022/09/21 22:29:38;;;;;;;1.95;1.50;;;15.10;77.70;;;;;;4965382;28;20038;-65
2022/09/21 22:32:04;;;;;;;4.80;1.58;;;15.10;77.70;;;;;;4964931;28;20376;-65
2022/09/21 22:34:30;;;;;;;1.58;1.48;;;15.10;77.70;;;;;;4964388;28;20396;-65
2022/09/21 22:36:58;;;;;;;2.45;1.60;;;15.10;77.70;;;;;;4957016;28;20016;-65
2022/09/21 22:39:23;;;;;;;3.25;1.50;;;15.10;77.70;;;;;;4956809;28;20026;-65
2022/09/21 22:41:49;;;;;;;4.57;1.50;;;15.10;77.70;;;;;;4972538;28;20113;-65
2022/09/21 22:44:15;;;;;;;5.70;1.65;;;15.10;77.70;;;;;;4965587;28;20031;-67
2022/09/21 22:46:40;;;;;;;4.55;1.70;;;15.10;77.70;;;;;;4962871;28;20516;-66
2022/09/21 22:49:06;;;;;;;2.15;1.52;;;15.10;77.70;;;;;;4963766;28;20547;-66
2022/09/21 22:51:32;;;;;;;2.17;1.45;;;15.10;77.80;;;;;;4963751;28;20034;-65
2022/09/21 22:54:00;;;;;;;2.28;1.25;;;15.10;77.70;;;;;;4965263;28;20288;-65
2022/09/21 22:56:28;;;;;;;2.08;1.35;;;15.10;77.70;;;;;;4964091;28;20476;-65
2022/09/21 22:58:56;;;;;;;2.45;1.60;;;15.10;77.70;;;;;;4962063;28;20020;-65
2022/09/21 23:01:24;;;;;;;2.85;1.70;;;15.10;77.80;;;;;;4961344;28;20028;-65
2022/09/21 23:03:58;;;;;;;4.78;1.70;;;15.00;77.70;;;;;;4967544;28;20039;-65
2022/09/21 23:06:26;;;;;;;1.98;1.75;;;15.00;77.70;;;;;;4960696;28;20114;-66
2022/09/21 23:08:55;;;;;;;2.88;1.48;;;15.10;77.80;;;;;;4963857;28;20309;-65
2022/09/21 23:11:26;;;;;;;2.35;1.33;;;15.00;77.70;;;;;;4963303;28;20129;-66
2022/09/21 23:13:53;;;;;;;3.50;1.35;;;15.00;77.80;;;;;;4962707;28;20428;-65
2022/09/21 23:16:19;;;;;;;4.05;1.70;;;15.00;78.50;;;;;;4960714;28;20023;-66
2022/09/21 23:18:46;;;;;;;4.20;1.38;;;15.00;77.70;;;;;;4958810;28;20070;-66
2022/09/21 23:21:14;;;;;;;1.73;1.52;;;15.00;77.80;;;;;;4961330;28;20262;-65
2022/09/21 23:23:40;;;;;;;3.40;1.88;;;15.00;78.50;;;;;;4959229;28;20038;-65
2022/09/21 23:26:10;;;;;;;5.53;1.83;;;15.00;77.70;;;;;;4960010;28;20027;-66
2022/09/21 23:28:38;;;;;;;1.83;1.50;;;15.00;77.70;;;;;;4956808;28;20489;-66
2022/09/21 23:31:06;;;;;;;3.60;1.75;;;15.00;77.70;;;;;;4953301;28;20110;-65
2022/09/21 23:33:46;;;;;;;3.80;1.80;;;15.00;77.70;;;;;;4956438;28;20042;-65
2022/09/21 23:36:15;;;;;;;4.88;1.67;;;15.00;77.70;;;;;;4956441;28;20039;-65
2022/09/21 23:38:41;;;;;;;2.00;1.52;;;15.00;77.70;;;;;;4963854;28;20039;-65
2022/09/21 23:41:11;;;;;;;5.22;1.40;;;15.00;78.40;;;;;;4960726;28;20031;-65
2022/09/21 23:43:38;;;;;;;3.75;1.60;;;15.00;77.70;;;;;;4959527;28;20031;-66
2022/09/21 23:46:05;;;;;;;3.63;1.70;;;15.00;77.70;;;;;;4954105;28;20037;-66
2022/09/21 23:48:31;;;;;;;2.22;1.70;;;15.00;77.70;;;;;;4963821;28;20030;-66
2022/09/21 23:50:57;;;;;;;2.28;1.60;;;15.00;77.70;;;;;;4960721;28;20046;-65
2022/09/21 23:53:24;;;;;;;2.45;1.73;;;15.00;77.80;;;;;;4959796;28;20118;-66
2022/09/21 23:55:50;;;;;;;2.47;1.70;;;14.90;77.60;;;;;;4961635;28;20364;-66
2022/09/21 23:58:16;;;;;;;2.20;1.65;;;14.90;77.70;;;;;;4966612;28;20425;-66
